Airfield :
LOGIN :

Register | Disclaimer

   EN    FR    IT 

 










Legend :    VFR   Marginal VFR   IFR   Intensive IFR   Very Intensive IFR
Visi :
Ceiling :
>= 8 km
>= 3000ft
5 to 8 km
1000 to 3000 ft
1500m to 5 km
500 to 1000 ft
800 to 1500m
200 to 500 ft
< 800m
< 200 ft
Symbols :   Thunderstorms  Fog  Heavy snow  Heavy precipitations  Wind > 20 kt
SIGMETs :     Misc.  Thunderstorms  Icing  Turbulence  Mountain Waves  Volcanic Ashes







- Airport Elevation : 322 ft


LHSN - Szolnok

CURRENT METAR :
  • 190015Z 07006KT 9999 -SNRA BKN025 OVC040 03/M02 Q1016 NOSIG RMK WHT

EXPIRED METARs :
  • 182345Z 07006KT 040V100 9999 SCT045 OVC055 03/M02 Q1016 NOSIG RMK BLU
  • 182315Z 08006KT CAVOK 03/M02 Q1016 NOSIG RMK BLU
  • 182245Z 06008KT CAVOK 03/M03 Q1017 TEMPO -RA RMK BLU
  • 182215Z 06006KT CAVOK 03/M03 Q1017 TEMPO -RA RMK BLU
  • 182145Z 07006KT 030V090 CAVOK 03/M03 Q1017 TEMPO -RA RMK BLU

TAF TAF LHSN
Valid from the 19 at 00:00 until the 19 at 09:00 UTC


182315Z 1900/1909 04007KT 9999 SCT040 BKN080
PROB40
TEMPO 1900/1902 7000 -RASN BKN030 OVC080
BECMG 1902/1904 5000 -SNRA SN BR BKN005 OVC015
TEMPO 1904/1909 3000 SN BR OVC005
No reported NOTAMs for that airfield.
3 SIGMETs reported for the Budapest FIR (LHCC) :
 
SIGMET 03 cancelation
LHCC SIGMET 05 VALID 182230/190230 LHBP
LHCC BUDAPEST FIR CNL SIGMET 03 182230/190230=
Severe icing
LHCC SIGMET 04 VALID 182230/190230 LHBP
LHCC BUDAPEST FIR SEV ICE FCST SW OF LINE N4746 E01810 - N4712 E01858 - N4702 E02145 4000/7000FT STNR INTSF=
SIGMET 03  CANCELED :
Severe icing
LHCC SIGMET 03 VALID 182230/190230 LHBP
LHCC BUDAPEST FIR SEV ICE FCST S OF N47 AND W OF E018 4000/7000FT STNR INTSF=



MET'MAP, your aeronautical weather chart ! - Copyright ORBIFLY December 2007 - Disclaimer

ORBIFLY MET'MAP TEAM :

Programming & Development : Alexandra Zaïnal
Concept & Development : Baudouin d'Aumeries
Co-Development & Prog : Marc-Olivier Méhu
Technical & hardware support : Manuel Goepfert

Contact : metmap@orbifly.com




SOURCES & CREDITS :

   NOAA